sensor_id;sensor_type;location;lat;lon;timestamp;pressure;altitude;pressure_sealevel;temperature;humidity
31761;BME280;18335;51.486;7.562;2023-08-01T00:00:12;98556.59;;;18.93;100.00
31761;BME280;18335;51.486;7.562;2023-08-01T00:02:39;98553.44;;;18.85;100.00
31761;BME280;18335;51.486;7.562;2023-08-01T00:05:08;98558.06;;;19.01;100.00
31761;BME280;18335;51.486;7.562;2023-08-01T00:07:35;98559.09;;;18.95;100.00
31761;BME280;18335;51.486;7.562;2023-08-01T00:10:02;98551.28;;;18.87;100.00
31761;BME280;18335;51.486;7.562;2023-08-01T00:12:30;98547.34;;;19.09;100.00
31761;BME280;18335;51.486;7.562;2023-08-01T00:14:57;98548.38;;;18.98;100.00
31761;BME280;18335;51.486;7.562;2023-08-01T00:17:24;98545.47;;;19.15;100.00
31761;BME280;18335;51.486;7.562;2023-08-01T00:19:51;98531.44;;;19.21;100.00
31761;BME280;18335;51.486;7.562;2023-08-01T00:22:17;98533.00;;;19.12;100.00
31761;BME280;18335;51.486;7.562;2023-08-01T00:24:44;98529.13;;;19.08;100.00
31761;BME280;18335;51.486;7.562;2023-08-01T00:27:12;98525.69;;;18.96;100.00
31761;BME280;18335;51.486;7.562;2023-08-01T00:29:40;98531.50;;;19.00;100.00
31761;BME280;18335;51.486;7.562;2023-08-01T00:32:07;98530.72;;;19.04;100.00
31761;BME280;18335;51.486;7.562;2023-08-01T00:34:34;98511.63;;;19.03;100.00
31761;BME280;18335;51.486;7.562;2023-08-01T00:37:01;98523.88;;;19.12;100.00
31761;BME280;18335;51.486;7.562;2023-08-01T00:39:28;98524.50;;;19.19;100.00
31761;BME280;18335;51.486;7.562;2023-08-01T00:41:55;98518.97;;;19.19;100.00
31761;BME280;18335;51.486;7.562;2023-08-01T00:44:22;98509.09;;;18.96;100.00
31761;BME280;18335;51.486;7.562;2023-08-01T00:46:50;98509.47;;;18.78;100.00
31761;BME280;18335;51.486;7.562;2023-08-01T00:49:17;98500.28;;;18.72;100.00
31761;BME280;18335;51.486;7.562;2023-08-01T00:51:44;98493.59;;;18.68;100.00
31761;BME280;18335;51.486;7.562;2023-08-01T00:54:11;98494.00;;;18.82;100.00
31761;BME280;18335;51.486;7.562;2023-08-01T00:56:38;98493.78;;;18.84;100.00
31761;BME280;18335;51.486;7.562;2023-08-01T00:59:05;98498.41;;;18.51;100.00
31761;BME280;18335;51.486;7.562;2023-08-01T01:01:32;98491.25;;;18.55;100.00
31761;BME280;18335;51.486;7.562;2023-08-01T01:04:00;98495.22;;;18.64;100.00
31761;BME280;18335;51.486;7.562;2023-08-01T01:06:32;98504.09;;;18.66;100.00
31761;BME280;18335;51.486;7.562;2023-08-01T01:09:02;98503.91;;;18.51;100.00
31761;BME280;18335;51.486;7.562;2023-08-01T01:11:30;98498.97;;;18.53;100.00
31761;BME280;18335;51.486;7.562;2023-08-01T01:13:57;98501.84;;;18.63;100.00
31761;BME280;18335;51.486;7.562;2023-08-01T01:16:23;98504.50;;;18.53;100.00
31761;BME280;18335;51.486;7.562;2023-08-01T01:18:50;98505.31;;;18.32;100.00
31761;BME280;18335;51.486;7.562;2023-08-01T01:21:18;98496.00;;;18.60;100.00
31761;BME280;18335;51.486;7.562;2023-08-01T01:23:45;98473.94;;;18.43;100.00
31761;BME280;18335;51.486;7.562;2023-08-01T01:26:15;98479.38;;;18.33;100.00
31761;BME280;18335;51.486;7.562;2023-08-01T01:28:42;98472.09;;;18.49;100.00
31761;BME280;18335;51.486;7.562;2023-08-01T01:31:09;98464.72;;;18.54;100.00
31761;BME280;18335;51.486;7.562;2023-08-01T01:33:36;98459.44;;;18.53;100.00
31761;BME280;18335;51.486;7.562;2023-08-01T01:36:04;98468.00;;;18.30;100.00
31761;BME280;18335;51.486;7.562;2023-08-01T01:38:32;98461.44;;;18.36;100.00
31761;BME280;18335;51.486;7.562;2023-08-01T01:40:58;98460.22;;;18.48;100.00
31761;BME280;18335;51.486;7.562;2023-08-01T01:43:25;98446.47;;;18.53;100.00
31761;BME280;18335;51.486;7.562;2023-08-01T01:45:52;98443.66;;;18.48;100.00
31761;BME280;18335;51.486;7.562;2023-08-01T01:48:19;98452.97;;;18.42;100.00
31761;BME280;18335;51.486;7.562;2023-08-01T01:50:45;98448.09;;;18.49;100.00
31761;BME280;18335;51.486;7.562;2023-08-01T01:53:12;98450.72;;;18.39;100.00
31761;BME280;18335;51.486;7.562;2023-08-01T01:55:42;98438.53;;;18.35;100.00
31761;BME280;18335;51.486;7.562;2023-08-01T01:58:09;98444.56;;;18.32;100.00
31761;BME280;18335;51.486;7.562;2023-08-01T02:00:36;98439.50;;;18.24;100.00
31761;BME280;18335;51.486;7.562;2023-08-01T02:03:03;98414.03;;;18.44;100.00
31761;BME280;18335;51.486;7.562;2023-08-01T02:05:32;98404.97;;;18.48;100.00
31761;BME280;18335;51.486;7.562;2023-08-01T02:07:59;98428.63;;;18.39;100.00
31761;BME280;18335;51.486;7.562;2023-08-01T02:10:26;98431.28;;;18.51;100.00
31761;BME280;18335;51.486;7.562;2023-08-01T02:12:54;98433.09;;;18.18;100.00
31761;BME280;18335;51.486;7.562;2023-08-01T02:15:21;98434.19;;;18.17;100.00
31761;BME280;18335;51.486;7.562;2023-08-01T02:17:48;98422.00;;;18.40;100.00
31761;BME280;18335;51.486;7.562;2023-08-01T02:20:14;98427.94;;;18.27;100.00
31761;BME280;18335;51.486;7.562;2023-08-01T02:22:41;98419.78;;;18.64;100.00
31761;BME280;18335;51.486;7.562;2023-08-01T02:25:08;98433.19;;;18.29;100.00
31761;BME280;18335;51.486;7.562;2023-08-01T02:27:35;98436.22;;;18.27;100.00
31761;BME280;18335;51.486;7.562;2023-08-01T02:30:04;98439.78;;;18.01;100.00
31761;BME280;18335;51.486;7.562;2023-08-01T02:32:32;98437.44;;;17.93;100.00
31761;BME280;18335;51.486;7.562;2023-08-01T02:34:59;98437.59;;;18.03;100.00
31761;BME280;18335;51.486;7.562;2023-08-01T02:37:26;98430.72;;;17.84;100.00
31761;BME280;18335;51.486;7.562;2023-08-01T02:39:53;98441.88;;;17.94;100.00
31761;BME280;18335;51.486;7.562;2023-08-01T02:42:20;98440.16;;;17.88;100.00
31761;BME280;18335;51.486;7.562;2023-08-01T02:44:46;98448.88;;;18.01;100.00
31761;BME280;18335;51.486;7.562;2023-08-01T02:47:14;98446.66;;;17.60;100.00
31761;BME280;18335;51.486;7.562;2023-08-01T02:49:42;98443.06;;;17.59;100.00
31761;BME280;18335;51.486;7.562;2023-08-01T02:52:08;98444.44;;;17.79;100.00
31761;BME280;18335;51.486;7.562;2023-08-01T02:54:35;98448.84;;;17.58;100.00
31761;BME280;18335;51.486;7.562;2023-08-01T02:57:02;98440.13;;;17.66;100.00
31761;BME280;18335;51.486;7.562;2023-08-01T02:59:29;98444.69;;;17.77;100.00
31761;BME280;18335;51.486;7.562;2023-08-01T03:01:59;98441.88;;;17.94;100.00
31761;BME280;18335;51.486;7.562;2023-08-01T03:04:27;98438.28;;;17.72;100.00
31761;BME280;18335;51.486;7.562;2023-08-01T03:06:54;98441.34;;;17.75;100.00
31761;BME280;18335;51.486;7.562;2023-08-01T03:09:20;98443.28;;;17.75;100.00
31761;BME280;18335;51.486;7.562;2023-08-01T03:11:47;98440.00;;;17.78;100.00
31761;BME280;18335;51.486;7.562;2023-08-01T03:14:14;98434.16;;;17.74;100.00
31761;BME280;18335;51.486;7.562;2023-08-01T03:16:42;98443.34;;;17.58;100.00
31761;BME280;18335;51.486;7.562;2023-08-01T03:19:09;98439.38;;;17.71;100.00
31761;BME280;18335;51.486;7.562;2023-08-01T03:21:37;98432.94;;;17.48;100.00
31761;BME280;18335;51.486;7.562;2023-08-01T03:24:04;98438.63;;;17.42;100.00
31761;BME280;18335;51.486;7.562;2023-08-01T03:26:34;98443.66;;;17.61;100.00
31761;BME280;18335;51.486;7.562;2023-08-01T03:29:01;98438.94;;;17.79;100.00
31761;BME280;18335;51.486;7.562;2023-08-01T03:31:28;98434.38;;;17.51;100.00
31761;BME280;18335;51.486;7.562;2023-08-01T03:33:55;98440.66;;;17.46;100.00
31761;BME280;18335;51.486;7.562;2023-08-01T03:36:24;98444.50;;;17.45;100.00
31761;BME280;18335;51.486;7.562;2023-08-01T03:38:52;98449.84;;;17.52;100.00
31761;BME280;18335;51.486;7.562;2023-08-01T03:41:18;98442.53;;;17.79;100.00
31761;BME280;18335;51.486;7.562;2023-08-01T03:43:45;98456.69;;;17.49;100.00
31761;BME280;18335;51.486;7.562;2023-08-01T03:46:12;98446.81;;;17.53;100.00
31761;BME280;18335;51.486;7.562;2023-08-01T03:48:40;98443.78;;;17.72;100.00
31761;BME280;18335;51.486;7.562;2023-08-01T03:51:08;98437.91;;;17.85;100.00
31761;BME280;18335;51.486;7.562;2023-08-01T03:53:35;98440.72;;;17.90;100.00
31761;BME280;18335;51.486;7.562;2023-08-01T03:56:03;98450.63;;;17.86;100.00
31761;BME280;18335;51.486;7.562;2023-08-01T03:58:30;98454.38;;;18.01;100.00
31761;BME280;18335;51.486;7.562;2023-08-01T04:00:57;98448.38;;;17.83;100.00
31761;BME280;18335;51.486;7.562;2023-08-01T04:03:24;98465.22;;;17.64;100.00
31761;BME280;18335;51.486;7.562;2023-08-01T04:05:51;98469.72;;;17.71;100.00
31761;BME280;18335;51.486;7.562;2023-08-01T04:08:18;98468.72;;;17.77;100.00
31761;BME280;18335;51.486;7.562;2023-08-01T04:10:44;98465.16;;;17.81;100.00
31761;BME280;18335;51.486;7.562;2023-08-01T04:13:12;98461.41;;;18.09;100.00
31761;BME280;18335;51.486;7.562;2023-08-01T04:15:39;98458.91;;;17.86;100.00
31761;BME280;18335;51.486;7.562;2023-08-01T04:18:06;98468.81;;;17.87;100.00
31761;BME280;18335;51.486;7.562;2023-08-01T04:20:32;98477.09;;;17.87;100.00
31761;BME280;18335;51.486;7.562;2023-08-01T04:22:59;98484.88;;;17.90;100.00
31761;BME280;18335;51.486;7.562;2023-08-01T04:25:27;98483.25;;;17.72;100.00
31761;BME280;18335;51.486;7.562;2023-08-01T04:27:53;98485.09;;;17.66;100.00
31761;BME280;18335;51.486;7.562;2023-08-01T04:30:22;98482.06;;;17.85;100.00
31761;BME280;18335;51.486;7.562;2023-08-01T04:32:48;98479.41;;;17.73;100.00
31761;BME280;18335;51.486;7.562;2023-08-01T04:35:15;98487.75;;;17.78;100.00
31761;BME280;18335;51.486;7.562;2023-08-01T04:37:42;98489.25;;;17.86;100.00
31761;BME280;18335;51.486;7.562;2023-08-01T04:40:09;98482.56;;;17.82;100.00
31761;BME280;18335;51.486;7.562;2023-08-01T04:42:36;98489.88;;;17.93;100.00
31761;BME280;18335;51.486;7.562;2023-08-01T04:45:03;98487.69;;;17.56;100.00
31761;BME280;18335;51.486;7.562;2023-08-01T04:47:33;98485.69;;;17.68;100.00
31761;BME280;18335;51.486;7.562;2023-08-01T04:50:00;98492.88;;;17.69;100.00
31761;BME280;18335;51.486;7.562;2023-08-01T04:52:27;98490.19;;;17.75;100.00
31761;BME280;18335;51.486;7.562;2023-08-01T04:54:53;98492.25;;;17.84;100.00
31761;BME280;18335;51.486;7.562;2023-08-01T04:57:20;98494.78;;;17.86;100.00
31761;BME280;18335;51.486;7.562;2023-08-01T04:59:47;98501.31;;;17.63;100.00
31761;BME280;18335;51.486;7.562;2023-08-01T05:02:13;98492.13;;;17.24;100.00
31761;BME280;18335;51.486;7.562;2023-08-01T05:04:41;98499.47;;;17.68;100.00
31761;BME280;18335;51.486;7.562;2023-08-01T05:07:08;98499.91;;;17.60;100.00
31761;BME280;18335;51.486;7.562;2023-08-01T05:09:35;98503.16;;;17.57;100.00
31761;BME280;18335;51.486;7.562;2023-08-01T05:12:02;98505.34;;;17.55;100.00
31761;BME280;18335;51.486;7.562;2023-08-01T05:14:28;98501.72;;;17.38;100.00
31761;BME280;18335;51.486;7.562;2023-08-01T05:16:55;98508.69;;;17.57;100.00
31761;BME280;18335;51.486;7.562;2023-08-01T05:19:22;98510.66;;;17.79;100.00
31761;BME280;18335;51.486;7.562;2023-08-01T05:21:50;98516.69;;;17.76;100.00
31761;BME280;18335;51.486;7.562;2023-08-01T05:24:16;98508.84;;;17.67;100.00
31761;BME280;18335;51.486;7.562;2023-08-01T05:26:43;98514.94;;;17.53;100.00
31761;BME280;18335;51.486;7.562;2023-08-01T05:29:10;98518.53;;;17.70;100.00
31761;BME280;18335;51.486;7.562;2023-08-01T05:31:36;98523.38;;;17.46;100.00
31761;BME280;18335;51.486;7.562;2023-08-01T05:34:03;98524.63;;;17.89;100.00
31761;BME280;18335;51.486;7.562;2023-08-01T05:36:30;98524.00;;;17.87;100.00
31761;BME280;18335;51.486;7.562;2023-08-01T05:38:58;98520.63;;;18.01;100.00
31761;BME280;18335;51.486;7.562;2023-08-01T05:41:24;98526.53;;;17.72;100.00
31761;BME280;18335;51.486;7.562;2023-08-01T05:43:51;98531.06;;;17.78;100.00
31761;BME280;18335;51.486;7.562;2023-08-01T05:46:18;98538.94;;;17.69;100.00
31761;BME280;18335;51.486;7.562;2023-08-01T05:48:45;98532.91;;;17.89;100.00
31761;BME280;18335;51.486;7.562;2023-08-01T05:51:12;98533.56;;;17.62;100.00
31761;BME280;18335;51.486;7.562;2023-08-01T05:53:38;98540.28;;;17.66;100.00
31761;BME280;18335;51.486;7.562;2023-08-01T05:56:06;98539.03;;;17.57;100.00
31761;BME280;18335;51.486;7.562;2023-08-01T05:58:33;98531.56;;;17.75;100.00
31761;BME280;18335;51.486;7.562;2023-08-01T06:01:00;98540.84;;;17.68;100.00
31761;BME280;18335;51.486;7.562;2023-08-01T06:03:27;98536.22;;;17.74;100.00
31761;BME280;18335;51.486;7.562;2023-08-01T06:05:54;98538.41;;;17.89;100.00
31761;BME280;18335;51.486;7.562;2023-08-01T06:08:20;98529.00;;;17.68;100.00
31761;BME280;18335;51.486;7.562;2023-08-01T06:10:47;98545.22;;;18.03;100.00
31761;BME280;18335;51.486;7.562;2023-08-01T06:13:15;98539.56;;;17.93;100.00
31761;BME280;18335;51.486;7.562;2023-08-01T06:15:42;98541.91;;;18.01;100.00
31761;BME280;18335;51.486;7.562;2023-08-01T06:18:09;98549.84;;;18.19;100.00
31761;BME280;18335;51.486;7.562;2023-08-01T06:20:37;98546.88;;;17.82;100.00
31761;BME280;18335;51.486;7.562;2023-08-01T06:23:04;98548.38;;;18.11;100.00
31761;BME280;18335;51.486;7.562;2023-08-01T06:25:32;98548.63;;;17.72;100.00
31761;BME280;18335;51.486;7.562;2023-08-01T06:27:58;98550.69;;;17.98;100.00
31761;BME280;18335;51.486;7.562;2023-08-01T06:30:27;98549.06;;;18.02;100.00
31761;BME280;18335;51.486;7.562;2023-08-01T06:32:54;98553.38;;;18.14;100.00
31761;BME280;18335;51.486;7.562;2023-08-01T06:35:20;98551.44;;;17.93;100.00
31761;BME280;18335;51.486;7.562;2023-08-01T06:37:47;98554.06;;;18.05;100.00
31761;BME280;18335;51.486;7.562;2023-08-01T06:40:14;98559.09;;;18.08;100.00
31761;BME280;18335;51.486;7.562;2023-08-01T06:42:41;98561.84;;;17.69;100.00
31761;BME280;18335;51.486;7.562;2023-08-01T06:45:08;98558.63;;;17.94;100.00
31761;BME280;18335;51.486;7.562;2023-08-01T06:47:37;98549.72;;;18.09;100.00
31761;BME280;18335;51.486;7.562;2023-08-01T06:50:04;98557.75;;;18.10;100.00
31761;BME280;18335;51.486;7.562;2023-08-01T06:52:31;98550.13;;;18.39;100.00
31761;BME280;18335;51.486;7.562;2023-08-01T06:54:58;98550.69;;;17.98;100.00
31761;BME280;18335;51.486;7.562;2023-08-01T06:57:25;98556.47;;;18.18;100.00
31761;BME280;18335;51.486;7.562;2023-08-01T06:59:51;98555.53;;;18.29;100.00
31761;BME280;18335;51.486;7.562;2023-08-01T07:02:18;98545.84;;;18.10;100.00
31761;BME280;18335;51.486;7.562;2023-08-01T07:04:46;98552.38;;;18.64;100.00
31761;BME280;18335;51.486;7.562;2023-08-01T07:07:13;98554.78;;;18.55;100.00
31761;BME280;18335;51.486;7.562;2023-08-01T07:09:40;98551.28;;;18.43;100.00
31761;BME280;18335;51.486;7.562;2023-08-01T07:12:07;98555.06;;;19.02;100.00
31761;BME280;18335;51.486;7.562;2023-08-01T07:14:34;98544.91;;;18.86;100.00
31761;BME280;18335;51.486;7.562;2023-08-01T07:17:01;98551.25;;;18.82;100.00
31761;BME280;18335;51.486;7.562;2023-08-01T07:19:28;98560.31;;;18.55;100.00
31761;BME280;18335;51.486;7.562;2023-08-01T07:21:56;98550.59;;;18.53;100.00
31761;BME280;18335;51.486;7.562;2023-08-01T07:24:22;98566.94;;;18.38;100.00
31761;BME280;18335;51.486;7.562;2023-08-01T07:26:49;98562.69;;;18.68;100.00
31761;BME280;18335;51.486;7.562;2023-08-01T07:29:16;98560.47;;;18.70;100.00
31761;BME280;18335;51.486;7.562;2023-08-01T07:31:43;98562.84;;;18.84;100.00
31761;BME280;18335;51.486;7.562;2023-08-01T07:34:09;98563.75;;;19.16;100.00
31761;BME280;18335;51.486;7.562;2023-08-01T07:36:36;98564.03;;;19.41;100.00
31761;BME280;18335;51.486;7.562;2023-08-01T07:39:04;98565.25;;;19.28;100.00
31761;BME280;18335;51.486;7.562;2023-08-01T07:41:31;98568.97;;;19.39;100.00
31761;BME280;18335;51.486;7.562;2023-08-01T07:44:00;98565.41;;;19.17;100.00
31761;BME280;18335;51.486;7.562;2023-08-01T07:46:27;98568.78;;;18.70;100.00
31761;BME280;18335;51.486;7.562;2023-08-01T07:48:54;98568.56;;;18.99;100.00
31761;BME280;18335;51.486;7.562;2023-08-01T07:51:21;98573.59;;;18.80;100.00
31761;BME280;18335;51.486;7.562;2023-08-01T07:53:47;98572.03;;;18.89;100.00
31761;BME280;18335;51.486;7.562;2023-08-01T07:56:16;98580.66;;;18.71;100.00
31761;BME280;18335;51.486;7.562;2023-08-01T07:58:42;98581.00;;;19.01;100.00
31761;BME280;18335;51.486;7.562;2023-08-01T08:01:09;98581.09;;;18.85;100.00
31761;BME280;18335;51.486;7.562;2023-08-01T08:03:36;98582.47;;;19.09;100.00
31761;BME280;18335;51.486;7.562;2023-08-01T08:06:03;98584.84;;;19.00;100.00
31761;BME280;18335;51.486;7.562;2023-08-01T08:08:31;98585.06;;;19.20;100.00
31761;BME280;18335;51.486;7.562;2023-08-01T08:10:59;98591.97;;;19.18;100.00
31761;BME280;18335;51.486;7.562;2023-08-01T08:13:28;98591.94;;;19.71;100.00
31761;BME280;18335;51.486;7.562;2023-08-01T08:15:55;98575.81;;;19.37;100.00
31761;BME280;18335;51.486;7.562;2023-08-01T08:18:22;98583.16;;;19.79;100.00
31761;BME280;18335;51.486;7.562;2023-08-01T08:20:49;98570.41;;;19.78;100.00
31761;BME280;18335;51.486;7.562;2023-08-01T08:23:18;98579.78;;;19.77;100.00
31761;BME280;18335;51.486;7.562;2023-08-01T08:25:45;98590.53;;;19.69;100.00
31761;BME280;18335;51.486;7.562;2023-08-01T08:28:13;98585.88;;;19.74;100.00
31761;BME280;18335;51.486;7.562;2023-08-01T08:30:41;98578.91;;;20.04;100.00
31761;BME280;18335;51.486;7.562;2023-08-01T08:33:08;98585.56;;;20.08;100.00
31761;BME280;18335;51.486;7.562;2023-08-01T08:35:35;98591.94;;;19.71;100.00
31761;BME280;18335;51.486;7.562;2023-08-01T08:38:03;98582.00;;;19.75;100.00
31761;BME280;18335;51.486;7.562;2023-08-01T08:40:31;98588.16;;;19.82;100.00
31761;BME280;18335;51.486;7.562;2023-08-01T08:43:01;98598.78;;;19.64;100.00
31761;BME280;18335;51.486;7.562;2023-08-01T08:45:29;98595.88;;;19.80;100.00
31761;BME280;18335;51.486;7.562;2023-08-01T08:48:01;98588.84;;;20.05;100.00
31761;BME280;18335;51.486;7.562;2023-08-01T08:50:29;98584.34;;;20.92;100.00
31761;BME280;18335;51.486;7.562;2023-08-01T08:52:56;98593.13;;;20.69;100.00
31761;BME280;18335;51.486;7.562;2023-08-01T08:55:24;98582.97;;;20.33;100.00
31761;BME280;18335;51.486;7.562;2023-08-01T08:57:52;98583.56;;;20.40;100.00
31761;BME280;18335;51.486;7.562;2023-08-01T09:00:20;98586.06;;;20.41;100.00
31761;BME280;18335;51.486;7.562;2023-08-01T09:02:47;98578.25;;;21.01;100.00
31761;BME280;18335;51.486;7.562;2023-08-01T09:05:15;98573.66;;;21.51;100.00
31761;BME280;18335;51.486;7.562;2023-08-01T09:07:45;98581.28;;;20.89;100.00
31761;BME280;18335;51.486;7.562;2023-08-01T09:10:13;98580.97;;;20.85;100.00
31761;BME280;18335;51.486;7.562;2023-08-01T09:12:40;98582.19;;;21.15;100.00
31761;BME280;18335;51.486;7.562;2023-08-01T09:15:10;98576.41;;;21.21;100.00
31761;BME280;18335;51.486;7.562;2023-08-01T09:17:47;98573.34;;;21.13;100.00
31761;BME280;18335;51.486;7.562;2023-08-01T09:20:15;98583.81;;;20.90;100.00
31761;BME280;18335;51.486;7.562;2023-08-01T09:22:43;98594.53;;;20.77;100.00
31761;BME280;18335;51.486;7.562;2023-08-01T09:25:10;98602.63;;;20.31;100.00
31761;BME280;18335;51.486;7.562;2023-08-01T09:27:37;98590.44;;;19.96;100.00
31761;BME280;18335;51.486;7.562;2023-08-01T09:30:08;98593.72;;;19.87;100.00
31761;BME280;18335;51.486;7.562;2023-08-01T09:32:36;98597.47;;;20.08;100.00
31761;BME280;18335;51.486;7.562;2023-08-01T09:35:04;98595.41;;;19.88;100.00
31761;BME280;18335;51.486;7.562;2023-08-01T09:37:42;98599.75;;;19.79;100.00
31761;BME280;18335;51.486;7.562;2023-08-01T09:40:10;98595.53;;;19.72;100.00
31761;BME280;18335;51.486;7.562;2023-08-01T09:42:38;98590.09;;;20.24;100.00
31761;BME280;18335;51.486;7.562;2023-08-01T09:45:11;98591.84;;;20.30;100.00
31761;BME280;18335;51.486;7.562;2023-08-01T09:47:38;98593.88;;;20.50;100.00
31761;BME280;18335;51.486;7.562;2023-08-01T09:50:05;98587.31;;;20.76;100.00
31761;BME280;18335;51.486;7.562;2023-08-01T09:52:32;98591.13;;;21.37;100.00
31761;BME280;18335;51.486;7.562;2023-08-01T09:55:00;98570.34;;;21.70;100.00
31761;BME280;18335;51.486;7.562;2023-08-01T09:57:29;98569.50;;;21.69;100.00
31761;BME280;18335;51.486;7.562;2023-08-01T09:59:57;98573.38;;;21.83;100.00
31761;BME280;18335;51.486;7.562;2023-08-01T10:02:25;98574.25;;;21.74;100.00
31761;BME280;18335;51.486;7.562;2023-08-01T10:04:53;98576.19;;;21.93;100.00
31761;BME280;18335;51.486;7.562;2023-08-01T10:07:24;98570.34;;;22.10;100.00
31761;BME280;18335;51.486;7.562;2023-08-01T10:09:53;98568.41;;;21.90;100.00
31761;BME280;18335;51.486;7.562;2023-08-01T10:12:22;98566.44;;;21.40;100.00
31761;BME280;18335;51.486;7.562;2023-08-01T10:14:51;98568.66;;;21.33;100.00
31761;BME280;18335;51.486;7.562;2023-08-01T10:17:21;98571.72;;;21.52;100.00
31761;BME280;18335;51.486;7.562;2023-08-01T10:19:49;98573.09;;;21.75;100.00
31761;BME280;18335;51.486;7.562;2023-08-01T10:22:17;98572.59;;;21.98;100.00
31761;BME280;18335;51.486;7.562;2023-08-01T10:24:45;98571.09;;;22.41;100.00
31761;BME280;18335;51.486;7.562;2023-08-01T10:27:14;98566.06;;;22.48;100.00
31761;BME280;18335;51.486;7.562;2023-08-01T10:29:42;98559.44;;;22.34;100.00
31761;BME280;18335;51.486;7.562;2023-08-01T10:32:09;98564.22;;;22.08;100.00
31761;BME280;18335;51.486;7.562;2023-08-01T10:34:37;98561.16;;;22.15;100.00
31761;BME280;18335;51.486;7.562;2023-08-01T10:37:04;98558.41;;;21.89;100.00
31761;BME280;18335;51.486;7.562;2023-08-01T10:39:31;98568.41;;;21.65;100.00
31761;BME280;18335;51.486;7.562;2023-08-01T10:41:59;98567.84;;;21.48;100.00
31761;BME280;18335;51.486;7.562;2023-08-01T10:44:26;98586.56;;;20.90;100.00
31761;BME280;18335;51.486;7.562;2023-08-01T10:46:56;98606.94;;;20.59;100.00
31761;BME280;18335;51.486;7.562;2023-08-01T10:49:34;98633.03;;;18.83;100.00
31761;BME280;18335;51.486;7.562;2023-08-01T10:52:01;98634.56;;;18.73;100.00
31761;BME280;18335;51.486;7.562;2023-08-01T10:54:28;98625.75;;;18.76;100.00
31761;BME280;18335;51.486;7.562;2023-08-01T10:56:56;98622.09;;;18.49;100.00
31761;BME280;18335;51.486;7.562;2023-08-01T10:59:24;98617.31;;;19.10;100.00
31761;BME280;18335;51.486;7.562;2023-08-01T11:01:52;98623.16;;;19.13;100.00
31761;BME280;18335;51.486;7.562;2023-08-01T11:04:22;98622.75;;;19.26;100.00
31761;BME280;18335;51.486;7.562;2023-08-01T11:06:50;98617.88;;;19.65;100.00
31761;BME280;18335;51.486;7.562;2023-08-01T11:09:19;98626.00;;;20.09;100.00
31761;BME280;18335;51.486;7.562;2023-08-01T11:11:49;98620.88;;;19.91;100.00
31761;BME280;18335;51.486;7.562;2023-08-01T11:14:19;98624.28;;;20.03;100.00
31761;BME280;18335;51.486;7.562;2023-08-01T11:16:46;98625.53;;;21.26;100.00
31761;BME280;18335;51.486;7.562;2023-08-01T11:19:23;98614.97;;;21.23;100.00
31761;BME280;18335;51.486;7.562;2023-08-01T11:21:50;98601.94;;;21.28;100.00
31761;BME280;18335;51.486;7.562;2023-08-01T11:24:18;98611.66;;;21.31;100.00
31761;BME280;18335;51.486;7.562;2023-08-01T11:26:46;98591.03;;;21.02;100.00
31761;BME280;18335;51.486;7.562;2023-08-01T11:29:14;98591.06;;;21.12;100.00
31761;BME280;18335;51.486;7.562;2023-08-01T11:31:51;98613.22;;;20.39;100.00
31761;BME280;18335;51.486;7.562;2023-08-01T11:34:18;98634.56;;;19.70;100.00
31761;BME280;18335;51.486;7.562;2023-08-01T11:36:46;98684.69;;;19.04;100.00
31761;BME280;18335;51.486;7.562;2023-08-01T11:39:15;98677.50;;;18.43;100.00
31761;BME280;18335;51.486;7.562;2023-08-01T11:41:42;98700.84;;;17.40;100.00
31761;BME280;18335;51.486;7.562;2023-08-01T11:44:08;98702.50;;;17.41;100.00
31761;BME280;18335;51.486;7.562;2023-08-01T11:46:38;98702.13;;;17.94;100.00
31761;BME280;18335;51.486;7.562;2023-08-01T11:49:06;98714.63;;;17.68;100.00
31761;BME280;18335;51.486;7.562;2023-08-01T11:51:38;98708.56;;;18.00;100.00
31761;BME280;18335;51.486;7.562;2023-08-01T11:54:08;98699.19;;;17.84;100.00
31761;BME280;18335;51.486;7.562;2023-08-01T11:56:37;98693.75;;;18.06;100.00
31761;BME280;18335;51.486;7.562;2023-08-01T11:59:08;98695.41;;;18.40;100.00
31761;BME280;18335;51.486;7.562;2023-08-01T12:01:38;98690.06;;;18.50;100.00
31761;BME280;18335;51.486;7.562;2023-08-01T12:04:05;98690.09;;;18.00;100.00
31761;BME280;18335;51.486;7.562;2023-08-01T12:06:32;98688.75;;;18.74;100.00
31761;BME280;18335;51.486;7.562;2023-08-01T12:09:08;98689.19;;;18.66;100.00
31761;BME280;18335;51.486;7.562;2023-08-01T12:11:35;98696.53;;;18.77;100.00
31761;BME280;18335;51.486;7.562;2023-08-01T12:14:03;98691.34;;;18.81;100.00
31761;BME280;18335;51.486;7.562;2023-08-01T12:16:30;98701.53;;;18.81;100.00
31761;BME280;18335;51.486;7.562;2023-08-01T12:18:57;98705.44;;;18.85;100.00
31761;BME280;18335;51.486;7.562;2023-08-01T12:21:24;98694.97;;;19.30;100.00
31761;BME280;18335;51.486;7.562;2023-08-01T12:23:51;98703.84;;;18.89;100.00
31761;BME280;18335;51.486;7.562;2023-08-01T12:26:19;98714.59;;;18.85;100.00
31761;BME280;18335;51.486;7.562;2023-08-01T12:28:46;98700.09;;;19.65;100.00
31761;BME280;18335;51.486;7.562;2023-08-01T12:31:16;98706.38;;;19.60;100.00
31761;BME280;18335;51.486;7.562;2023-08-01T12:33:44;98705.38;;;19.45;100.00
31761;BME280;18335;51.486;7.562;2023-08-01T12:36:10;98708.41;;;20.28;100.00
31761;BME280;18335;51.486;7.562;2023-08-01T12:38:37;98707.50;;;20.18;100.00
31761;BME280;18335;51.486;7.562;2023-08-01T12:41:04;98705.78;;;20.12;100.00
31761;BME280;18335;51.486;7.562;2023-08-01T12:43:32;98716.00;;;19.79;100.00
31761;BME280;18335;51.486;7.562;2023-08-01T12:45:59;98701.00;;;20.07;100.00
31761;BME280;18335;51.486;7.562;2023-08-01T12:48:26;98724.56;;;19.51;100.00
31761;BME280;18335;51.486;7.562;2023-08-01T12:50:53;98720.22;;;19.60;100.00